Goldsboro-Wayne Municipal Airport


Codes: KGWW/
Name: Goldsboro-Wayne Municipal Airport
City: Goldsboro
Country: United States
Elevation: 134 ft.
Wikipedia:

Photos at Goldsboro-Wayne Municipal Airport


   Photos courtesy of SpottingLog. You can add your own sightings and photos by signing up for a free trial today.



No photos found.

Weather at Goldsboro-Wayne Municipal Airport


Time (UTC)DescriptionTempratureWindCloud coverageVisibilityPressureHumidity
17-Jun-2024 03:00Clear Sky24°C9 mph, SE0%10000m1022hPa61%
17-Jun-2024 06:00Few Clouds22°C4 mph, S11%10000m1022hPa69%
17-Jun-2024 09:00Few Clouds21°C4 mph, SE14%10000m1022hPa78%
17-Jun-2024 12:00Scattered Clouds23°C4 mph, SE36%10000m1023hPa72%
17-Jun-2024 15:00Overcast Clouds25°C4 mph, SE95%10000m1024hPa62%
17-Jun-2024 18:00Broken Clouds30°C4 mph, SE71%10000m1022hPa46%
17-Jun-2024 21:00Few Clouds32°C7 mph, E17%10000m1020hPa41%
18-Jun-2024 00:00Few Clouds26°C11 mph, SE19%10000m1021hPa58%
18-Jun-2024 03:00Clear Sky21°C7 mph, S0%10000m1023hPa70%
18-Jun-2024 06:00Clear Sky20°C7 mph, SE2%10000m1023hPa82%
18-Jun-2024 09:00Clear Sky18°C4 mph, SE9%10000m1023hPa86%
18-Jun-2024 12:00Few Clouds22°C4 mph, SE11%10000m1025hPa73%
18-Jun-2024 15:00Clear Sky27°C7 mph, SE4%10000m1024hPa51%
18-Jun-2024 18:00Clear Sky31°C9 mph, E2%10000m1023hPa38%
18-Jun-2024 21:00Clear Sky31°C13 mph, E0%10000m1022hPa34%
19-Jun-2024 00:00Clear Sky25°C9 mph, SE0%10000m1023hPa55%
19-Jun-2024 03:00Clear Sky21°C7 mph, SE0%10000m1025hPa77%
19-Jun-2024 06:00Clear Sky19°C4 mph, E1%10000m1025hPa87%
19-Jun-2024 09:00Clear Sky18°C7 mph, NE5%10000m1025hPa91%
19-Jun-2024 12:00Clear Sky22°C7 mph, NE4%10000m1027hPa77%
19-Jun-2024 15:00Scattered Clouds28°C9 mph, E42%10000m1027hPa53%
19-Jun-2024 18:00Scattered Clouds30°C11 mph, E50%10000m1025hPa48%
19-Jun-2024 21:00Clear Sky31°C11 mph, E6%10000m1024hPa38%
20-Jun-2024 00:00Clear Sky26°C11 mph, E6%10000m1025hPa56%
20-Jun-2024 03:00Clear Sky21°C7 mph, SE2%10000m1026hPa76%
20-Jun-2024 06:00Clear Sky19°C4 mph, E4%10000m1025hPa84%
20-Jun-2024 09:00Clear Sky18°C7 mph, NE0%10000m1026hPa92%
20-Jun-2024 12:00Clear Sky22°C7 mph, NE3%10000m1027hPa74%
20-Jun-2024 15:00Clear Sky27°C9 mph, E0%10000m1027hPa51%
20-Jun-2024 18:00Clear Sky31°C9 mph, E0%10000m1025hPa40%
20-Jun-2024 21:00Clear Sky31°C9 mph, SE4%10000m1023hPa38%
21-Jun-2024 00:00Clear Sky26°C9 mph, SE7%10000m1024hPa57%
21-Jun-2024 03:00Clear Sky22°C7 mph, SE0%10000m1025hPa80%
21-Jun-2024 06:00Clear Sky20°C4 mph, SE0%10000m1024hPa94%
21-Jun-2024 09:00Clear Sky19°C2 mph, SE0%10000m1024hPa95%
21-Jun-2024 12:00Clear Sky23°C4 mph, NE1%10000m1025hPa79%
21-Jun-2024 15:00Clear Sky28°C4 mph, E1%10000m1025hPa54%
21-Jun-2024 18:00Clear Sky32°C7 mph, E4%10000m1022hPa40%
21-Jun-2024 21:00Scattered Clouds33°C4 mph, SE43%10000m1020hPa34%
22-Jun-2024 00:00Broken Clouds28°C4 mph, SE63%10000m1021hPa56%